Guilford, Maine
Current Conditions -  °F | °C
As of 10:53 AM on Tuesday 21 Oct 2014 (Local Time) from KBGR Reporting Station
Overcast Overcast  
Wind Chill: 51°   Ceiling: 6500
Heat Index: 51°   Visibility: 10mi
Dew Point: 35°   Wind: 3mph
Humidity: 54%   Direction: 130°SE
Pressure: 30.1"   Gusts: NA
Location:  45.17°N, 69.39°W
Report Text: KBGR 211453Z 13003KT 10SM OVC065 11/02 A3010 RMK AO2 SLP194 T01060017 53012
Loading
Personal Weather Stations






























Interactive Weather Map
Tropical Storm Tracking
New forecast layout! Learn more

10-Day Weather Forecast

Advertisements
Track Severe Weather on mobile